Weather at Chester Airport

Public forecast

Using degrees Fahrenheit for public forecast. Weather courtesy of forecast.io.

Current aviation weather report (METAR) for Chester Airport

Report is more than 6 hours old.

2022/11/14 15:35 (retrieved 2 years ago)

KSNC 141535Z AUTO 29006G15KT 10SM CLR 05/M08 A3028 RMK AO2

Closest aviation forecast (TAF) to Chester Airport

Forecast is more than 12 hours old.

Closest forecast is Groton New London Airport, 21.0 nm (38.9 km) E.

2023/02/22 18:24 (retrieved 1 year ago)

TAF KGON 221722Z 2218/2318 23007KT P6SM OVC100 FM222200 18005KT 6SM -RA BR SCT025 OVC050 TEMPO 2222/2223 -RASN OVC015 FM222300 10005KT 5SM -RA OVC010 FM230000 09007KT 5SM -RA BR OVC008 FM230500 06006KT 3SM -RADZ BR OVC006 FM231200 06004KT 1SM -DZ BR OVC007